createdAt,value
2019-03-15T00:01:42.160Z,95.10
2019-03-15T00:04:12.054Z,95.30
2019-03-15T00:06:41.774Z,95.50
2019-03-15T00:09:11.504Z,95.60
2019-03-15T00:11:41.235Z,95.70
2019-03-15T00:14:10.965Z,95.70
2019-03-15T00:16:40.724Z,95.80
2019-03-15T00:19:10.443Z,95.90
2019-03-15T00:21:46.347Z,96.00
2019-03-15T00:24:16.083Z,96.10
2019-03-15T00:26:45.824Z,96.10
2019-03-15T00:29:15.617Z,96.10
2019-03-15T00:31:46.350Z,96.20
2019-03-15T00:34:16.653Z,96.10
2019-03-15T00:36:46.458Z,96.30
2019-03-15T00:39:16.251Z,96.30
2019-03-15T00:41:46.087Z,96.50
2019-03-15T00:44:16.039Z,96.50
2019-03-15T00:46:45.971Z,96.40
2019-03-15T00:49:15.700Z,96.50
2019-03-15T00:51:45.431Z,96.40
2019-03-15T00:54:16.107Z,96.40
2019-03-15T00:56:45.845Z,96.50
2019-03-15T00:59:15.602Z,96.60
2019-03-15T01:01:45.696Z,96.70
2019-03-15T01:04:15.559Z,96.80
2019-03-15T01:06:45.315Z,96.80
2019-03-15T01:09:15.039Z,97.00
2019-03-15T01:11:45.686Z,96.90
2019-03-15T01:14:15.615Z,97.00
2019-03-15T01:16:45.334Z,97.00
2019-03-15T01:19:15.108Z,96.90
2019-03-15T01:21:44.831Z,96.90
2019-03-15T01:24:15.364Z,97.20
2019-03-15T01:26:45.092Z,97.00
2019-03-15T01:29:14.818Z,97.10
2019-03-15T01:31:44.598Z,97.10
2019-03-15T01:34:15.331Z,97.30
2019-03-15T01:36:45.151Z,97.30
2019-03-15T01:39:14.912Z,97.20
2019-03-15T01:41:44.663Z,97.10
2019-03-15T01:44:14.395Z,97.30
2019-03-15T01:46:44.169Z,97.30
2019-03-15T01:49:13.887Z,97.20
2019-03-15T01:51:43.620Z,97.30
2019-03-15T01:54:13.681Z,97.30
2019-03-15T01:56:43.583Z,97.30
2019-03-15T01:59:13.359Z,97.20
2019-03-15T02:01:43.093Z,97.20
2019-03-15T02:04:12.873Z,97.00
2019-03-15T02:06:43.681Z,97.20
2019-03-15T02:09:13.559Z,97.40
2019-03-15T02:11:43.383Z,97.40
2019-03-15T02:14:13.159Z,97.50
2019-03-15T02:16:42.883Z,97.40
2019-03-15T02:19:12.611Z,97.50
2019-03-15T02:21:43.108Z,97.50
2019-03-15T02:24:13.564Z,97.50
2019-03-15T02:26:46.156Z,97.50
2019-03-15T02:29:15.905Z,97.50
2019-03-15T02:31:50.231Z,97.50
2019-03-15T02:34:20.088Z,97.60
2019-03-15T02:36:49.843Z,97.40
2019-03-15T02:39:20.094Z,97.50
2019-03-15T02:41:49.963Z,97.60
2019-03-15T02:44:19.678Z,97.70
2019-03-15T02:46:49.404Z,97.60
2019-03-15T02:49:19.134Z,97.60
2019-03-15T02:51:54.451Z,97.80
2019-03-15T02:54:24.203Z,97.80
2019-03-15T02:56:53.924Z,97.80
2019-03-15T02:59:23.747Z,97.90
2019-03-15T03:01:53.471Z,98.00
2019-03-15T03:04:23.205Z,98.00
2019-03-15T03:06:53.136Z,97.90
2019-03-15T03:09:22.797Z,97.80
2019-03-15T03:11:52.860Z,97.60
2019-03-15T03:14:22.627Z,97.60
2019-03-15T03:16:52.348Z,97.50
2019-03-15T03:19:22.257Z,97.30
2019-03-15T03:21:52.293Z,97.30
2019-03-15T03:24:22.213Z,97.20
2019-03-15T03:26:52.728Z,97.30
2019-03-15T03:29:22.493Z,97.20
2019-03-15T03:31:52.231Z,97.20
2019-03-15T03:34:21.984Z,97.30
2019-03-15T03:36:52.230Z,97.20
2019-03-15T03:39:22.283Z,97.10
2019-03-15T03:41:52.003Z,97.50
2019-03-15T03:44:21.731Z,97.20
2019-03-15T03:46:52.518Z,97.20
2019-03-15T03:49:23.453Z,97.40
2019-03-15T03:51:53.202Z,97.50
2019-03-15T03:54:23.072Z,97.50
2019-03-15T03:56:52.810Z,97.50
2019-03-15T03:59:22.553Z,97.40
2019-03-15T04:01:52.295Z,97.30
2019-03-15T04:04:22.019Z,97.30
2019-03-15T04:06:51.995Z,97.10
2019-03-15T04:09:21.723Z,97.30
2019-03-15T04:11:55.580Z,97.40
2019-03-15T04:14:22.810Z,97.50
2019-03-15T04:16:53.545Z,97.40
2019-03-15T04:19:23.311Z,97.40
2019-03-15T04:21:53.027Z,97.20
2019-03-15T04:24:22.765Z,97.30
2019-03-15T04:26:53.495Z,97.30
2019-03-15T04:29:23.225Z,97.40
2019-03-15T04:31:53.007Z,97.30
2019-03-15T04:34:22.730Z,97.20
2019-03-15T04:36:52.467Z,97.10
2019-03-15T04:39:22.283Z,97.10
2019-03-15T04:41:51.962Z,97.10
2019-03-15T04:44:21.701Z,96.90
2019-03-15T04:46:51.427Z,96.70
2019-03-15T04:49:21.173Z,96.70
2019-03-15T04:51:50.891Z,96.70
2019-03-15T04:54:20.680Z,96.70
2019-03-15T04:56:50.407Z,96.60
2019-03-15T04:59:20.167Z,96.70
2019-03-15T05:01:49.904Z,96.60
2019-03-15T05:04:19.646Z,96.50
2019-03-15T05:06:49.674Z,96.30
2019-03-15T05:09:19.393Z,96.20
2019-03-15T05:11:49.173Z,96.10
2019-03-15T05:14:18.895Z,95.90
2019-03-15T05:16:49.839Z,95.90
2019-03-15T05:19:19.567Z,96.10
2019-03-15T05:21:49.300Z,96.10
2019-03-15T05:24:19.037Z,95.80
2019-03-15T05:26:48.857Z,95.60
2019-03-15T05:29:18.743Z,95.70
2019-03-15T05:31:54.417Z,95.50
2019-03-15T05:34:24.204Z,95.20
2019-03-15T05:36:53.940Z,94.90
2019-03-15T05:39:23.670Z,94.80
2019-03-15T05:41:53.400Z,94.60
2019-03-15T05:44:23.127Z,94.50
2019-03-15T05:46:56.535Z,94.50
2019-03-15T05:49:26.265Z,94.50
2019-03-15T05:51:56.035Z,94.60
2019-03-15T05:54:25.787Z,94.50
2019-03-15T05:56:55.509Z,94.60
2019-03-15T05:59:25.238Z,94.60
2019-03-15T06:01:55.011Z,94.50
2019-03-15T06:04:26.656Z,94.30
2019-03-15T06:06:56.378Z,94.40
2019-03-15T06:09:26.144Z,94.10
2019-03-15T06:11:55.872Z,94.00
2019-03-15T06:14:25.599Z,93.80
2019-03-15T06:16:55.322Z,93.80
2019-03-15T06:19:25.082Z,93.50
2019-03-15T06:21:54.826Z,93.60
2019-03-15T06:24:24.568Z,93.40
2019-03-15T06:26:54.306Z,93.10
2019-03-15T06:29:24.934Z,93.10
2019-03-15T06:31:54.716Z,92.90
2019-03-15T06:34:24.442Z,92.90
2019-03-15T06:36:54.235Z,92.80
2019-03-15T06:39:23.951Z,92.90
2019-03-15T06:41:53.770Z,92.80
2019-03-15T06:44:23.622Z,92.80
2019-03-15T06:46:53.474Z,92.70
2019-03-15T06:49:23.217Z,92.50
2019-03-15T06:51:52.943Z,92.30
2019-03-15T06:54:22.680Z,92.00
2019-03-15T06:56:52.416Z,92.10
2019-03-15T06:59:22.143Z,91.90
2019-03-15T07:01:52.022Z,91.60
2019-03-15T07:04:21.745Z,91.60
2019-03-15T07:06:51.772Z,91.20
2019-03-15T07:09:21.511Z,91.60
2019-03-15T07:11:51.228Z,91.40
2019-03-15T07:14:20.995Z,91.50
2019-03-15T07:16:50.711Z,90.80
2019-03-15T07:19:26.436Z,90.90
2019-03-15T07:21:51.798Z,91.00
2019-03-15T07:24:25.545Z,90.60
2019-03-15T07:26:54.202Z,90.20
2019-03-15T07:29:24.063Z,90.10
2019-03-15T07:31:54.759Z,90.00
2019-03-15T07:34:24.543Z,90.30
2019-03-15T07:36:55.449Z,90.00
2019-03-15T07:39:26.567Z,89.50
2019-03-15T07:41:56.632Z,88.30
2019-03-15T07:44:26.375Z,88.50
2019-03-15T07:46:56.100Z,87.70
2019-03-15T07:49:25.887Z,87.60
2019-03-15T07:51:56.614Z,87.20
2019-03-15T07:54:37.375Z,87.10
2019-03-15T07:56:57.735Z,86.40
2019-03-15T07:59:28.026Z,85.50
2019-03-15T08:01:57.943Z,86.70
2019-03-15T08:04:28.037Z,86.30
2019-03-15T08:06:57.741Z,84.80
2019-03-15T08:09:27.503Z,85.40
2019-03-15T08:11:57.234Z,86.90
2019-03-15T08:14:26.989Z,87.30
2019-03-15T08:16:56.721Z,87.40
2019-03-15T08:19:26.455Z,85.70
2019-03-15T08:21:56.749Z,86.80
2019-03-15T08:24:26.607Z,86.00
2019-03-15T08:26:56.390Z,85.50
2019-03-15T08:29:26.915Z,86.10
2019-03-15T08:31:56.663Z,85.10
2019-03-15T08:34:26.391Z,84.90
2019-03-15T08:36:56.136Z,85.10
2019-03-15T08:39:25.894Z,83.60
2019-03-15T08:41:55.623Z,84.00
2019-03-15T08:44:25.347Z,84.90
2019-03-15T08:46:56.174Z,83.00
2019-03-15T08:49:25.897Z,83.20
2019-03-15T08:52:03.833Z,81.60
2019-03-15T08:54:27.010Z,82.60
2019-03-15T08:56:56.774Z,81.80
2019-03-15T08:59:26.494Z,81.30
2019-03-15T09:01:56.383Z,81.00
2019-03-15T09:04:26.115Z,80.80
2019-03-15T09:06:55.883Z,80.50
2019-03-15T09:09:25.612Z,79.80
2019-03-15T09:11:55.343Z,79.90
2019-03-15T09:14:25.069Z,80.50
2019-03-15T09:16:54.811Z,80.10
2019-03-15T09:19:24.530Z,81.10
2019-03-15T09:21:54.259Z,79.90
2019-03-15T09:24:24.046Z,79.90
2019-03-15T09:26:53.775Z,79.90
2019-03-15T09:29:23.510Z,80.20
2019-03-15T09:32:04.831Z,79.80
2019-03-15T09:34:24.589Z,80.00
2019-03-15T09:36:54.354Z,79.60
2019-03-15T09:39:24.073Z,79.70
2019-03-15T09:41:53.847Z,79.80
2019-03-15T09:44:23.574Z,78.50
2019-03-15T09:46:53.306Z,78.90
2019-03-15T09:49:23.045Z,77.90
2019-03-15T09:51:52.775Z,79.40
2019-03-15T09:54:26.082Z,79.10
2019-03-15T09:56:54.890Z,78.00
2019-03-15T09:59:24.770Z,78.10
2019-03-15T10:01:54.502Z,78.20
2019-03-15T10:04:24.231Z,76.70
2019-03-15T10:06:54.068Z,75.90
2019-03-15T10:09:23.795Z,74.20
2019-03-15T10:11:56.323Z,74.20
2019-03-15T10:14:24.915Z,73.60
2019-03-15T10:16:54.677Z,73.60
2019-03-15T10:19:24.480Z,73.20
2019-03-15T10:21:54.178Z,73.20
2019-03-15T10:24:23.894Z,72.20
2019-03-15T10:26:53.626Z,71.20
2019-03-15T10:29:23.351Z,71.00
2019-03-15T10:31:53.070Z,71.00
2019-03-15T10:34:22.851Z,71.20
2019-03-15T10:36:52.574Z,70.50
2019-03-15T10:39:22.310Z,68.20
2019-03-15T10:41:52.056Z,68.20
2019-03-15T10:44:21.784Z,67.80
2019-03-15T10:46:51.543Z,66.90
2019-03-15T10:49:21.274Z,68.40
2019-03-15T10:51:51.054Z,66.70
2019-03-15T10:54:20.770Z,66.50
2019-03-15T10:56:50.507Z,66.30
2019-03-15T10:59:20.250Z,65.90
2019-03-15T11:01:49.973Z,65.70
2019-03-15T11:04:19.752Z,66.70
2019-03-15T11:06:49.471Z,66.30
2019-03-15T11:09:19.203Z,65.20
2019-03-15T11:11:48.995Z,66.10
2019-03-15T11:14:18.720Z,66.00
2019-03-15T11:16:48.444Z,65.70
2019-03-15T11:19:18.180Z,65.40
2019-03-15T11:21:48.015Z,66.10
2019-03-15T11:24:17.778Z,66.50
2019-03-15T11:26:47.502Z,65.60
2019-03-15T11:29:17.672Z,65.70
2019-03-15T11:31:47.399Z,65.20
2019-03-15T11:34:17.164Z,66.30
2019-03-15T11:36:57.849Z,67.10
2019-03-15T11:39:18.262Z,67.10
2019-03-15T11:41:47.986Z,67.10
2019-03-15T11:44:17.735Z,66.00
2019-03-15T11:46:47.471Z,64.60
2019-03-15T11:49:17.199Z,62.90
2019-03-15T11:51:46.937Z,59.40
2019-03-15T11:54:16.666Z,58.90
2019-03-15T11:56:46.533Z,60.00
2019-03-15T11:59:16.279Z,60.40
2019-03-15T12:01:46.059Z,58.40
2019-03-15T12:04:15.794Z,57.90
2019-03-15T12:06:45.531Z,56.80
2019-03-15T12:09:15.267Z,58.10
2019-03-15T12:11:44.990Z,57.50
2019-03-15T12:14:14.751Z,58.30
2019-03-15T12:16:44.475Z,58.30
2019-03-15T12:19:14.388Z,57.70
2019-03-15T12:21:44.116Z,57.80
2019-03-15T12:24:13.885Z,58.60
2019-03-15T12:26:43.607Z,58.40
2019-03-15T12:29:13.355Z,58.30
2019-03-15T12:31:43.087Z,59.00
2019-03-15T12:34:12.823Z,59.80
2019-03-15T12:36:42.930Z,58.90
2019-03-15T12:39:12.654Z,59.00
2019-03-15T12:41:42.386Z,59.50
2019-03-15T12:44:12.126Z,59.50
2019-03-15T12:46:41.858Z,58.40
2019-03-15T12:49:11.666Z,58.70
2019-03-15T12:51:41.396Z,58.80
2019-03-15T12:54:12.276Z,58.00
2019-03-15T12:56:53.303Z,56.50
2019-03-15T12:59:13.394Z,56.60
2019-03-15T13:01:43.150Z,56.50
2019-03-15T13:04:12.915Z,55.10
2019-03-15T13:06:42.648Z,54.30
2019-03-15T13:09:12.393Z,54.60
2019-03-15T13:11:42.129Z,54.00
2019-03-15T13:14:11.855Z,54.20
2019-03-15T13:16:41.629Z,54.50
2019-03-15T13:19:11.366Z,54.00
2019-03-15T13:21:41.160Z,53.50
2019-03-15T13:24:10.884Z,52.70
2019-03-15T13:26:40.622Z,53.50
2019-03-15T13:29:10.348Z,53.40
2019-03-15T13:31:40.070Z,53.80
2019-03-15T13:34:09.837Z,54.70
2019-03-15T13:36:41.159Z,54.30
2019-03-15T13:39:10.926Z,54.60
2019-03-15T13:41:40.677Z,54.40
2019-03-15T13:44:10.401Z,54.00
2019-03-15T13:46:40.137Z,52.70
2019-03-15T13:49:09.880Z,53.80
2019-03-15T13:51:39.644Z,53.30
2019-03-15T13:54:09.375Z,53.90
2019-03-15T13:56:39.148Z,54.50
2019-03-15T13:59:08.876Z,55.00
2019-03-15T14:01:38.614Z,55.20
2019-03-15T14:04:08.353Z,54.70
2019-03-15T14:06:38.073Z,54.60
2019-03-15T14:09:08.346Z,54.30
2019-03-15T14:11:38.079Z,54.70
2019-03-15T14:14:07.879Z,55.40
2019-03-15T14:16:37.590Z,55.70
2019-03-15T14:19:07.325Z,55.80
2019-03-15T14:21:37.050Z,55.60
2019-03-15T14:24:06.794Z,54.40
2019-03-15T14:26:36.559Z,54.50
2019-03-15T14:29:09.107Z,55.60
2019-03-15T14:31:38.890Z,55.50
2019-03-15T14:34:08.606Z,55.10
2019-03-15T14:36:38.348Z,55.00
2019-03-15T14:39:08.169Z,55.30
2019-03-15T14:41:38.197Z,55.00
2019-03-15T14:44:08.018Z,54.60
2019-03-15T14:46:37.756Z,53.70
2019-03-15T14:49:07.478Z,54.00
2019-03-15T14:51:37.203Z,53.90
2019-03-15T14:54:07.324Z,53.50
2019-03-15T14:56:37.054Z,52.40
2019-03-15T14:59:07.929Z,50.70
2019-03-15T15:01:37.664Z,50.60
2019-03-15T15:04:07.390Z,47.70
2019-03-15T15:06:37.123Z,47.60
2019-03-15T15:09:07.157Z,47.20
2019-03-15T15:11:36.951Z,47.20
2019-03-15T15:14:06.684Z,46.00
2019-03-15T15:16:36.729Z,45.10
2019-03-15T15:19:06.490Z,45.60
2019-03-15T15:21:36.256Z,45.80
2019-03-15T15:24:06.263Z,47.10
2019-03-15T15:26:36.991Z,47.90
2019-03-15T15:29:06.778Z,48.50
2019-03-15T15:31:36.817Z,49.40
2019-03-15T15:34:06.555Z,50.10
2019-03-15T15:36:36.293Z,50.90
2019-03-15T15:39:06.852Z,51.90
2019-03-15T15:41:36.582Z,52.90
2019-03-15T15:44:06.424Z,53.70
2019-03-15T15:46:36.167Z,54.20
2019-03-15T15:49:05.904Z,54.90
2019-03-15T15:51:36.776Z,55.10
2019-03-15T15:54:06.506Z,56.00
2019-03-15T15:56:36.306Z,56.20
2019-03-15T15:59:06.032Z,56.50
2019-03-15T16:01:35.762Z,57.00
2019-03-15T16:04:05.502Z,57.40
2019-03-15T16:06:35.229Z,57.50
2019-03-15T16:09:06.504Z,58.20
2019-03-15T16:11:36.241Z,58.00
2019-03-15T16:14:06.010Z,57.80
2019-03-15T16:16:35.736Z,58.00
2019-03-15T16:19:05.542Z,57.90
2019-03-15T16:21:35.300Z,58.30
2019-03-15T16:24:05.347Z,58.30
2019-03-15T16:26:35.133Z,58.50
2019-03-15T16:29:05.589Z,58.50
2019-03-15T16:31:35.336Z,58.20
2019-03-15T16:34:05.051Z,58.60
2019-03-15T16:36:34.842Z,59.00
2019-03-15T16:39:06.328Z,58.70
2019-03-15T16:41:36.096Z,58.80
2019-03-15T16:44:05.824Z,58.80
2019-03-15T16:46:35.551Z,59.40
2019-03-15T16:49:05.287Z,59.80
2019-03-15T16:51:35.018Z,60.30
2019-03-15T16:54:05.792Z,60.70
2019-03-15T16:56:35.511Z,61.30
2019-03-15T16:59:05.273Z,61.80
2019-03-15T17:01:35.007Z,62.00
2019-03-15T17:04:04.748Z,62.60
2019-03-15T17:06:34.478Z,62.80
2019-03-15T17:09:05.799Z,63.10
2019-03-15T17:11:35.692Z,63.10
2019-03-15T17:14:05.422Z,63.60
2019-03-15T17:16:35.504Z,63.50
2019-03-15T17:19:05.355Z,63.20
2019-03-15T17:21:35.103Z,63.80
2019-03-15T17:24:04.872Z,63.60
2019-03-15T17:26:34.677Z,63.80
2019-03-15T17:29:04.421Z,63.80
2019-03-15T17:31:34.189Z,63.90
2019-03-15T17:34:05.106Z,64.30
2019-03-15T17:36:34.832Z,64.70
2019-03-15T17:39:06.614Z,66.00
2019-03-15T17:41:35.507Z,67.50
2019-03-15T17:44:05.155Z,68.40
2019-03-15T17:46:34.898Z,67.50
2019-03-15T17:49:04.772Z,67.30
2019-03-15T17:51:52.198Z,67.50
2019-03-15T17:54:21.920Z,67.10
2019-03-15T17:56:51.659Z,66.90
2019-03-15T17:59:21.403Z,67.20
2019-03-15T18:01:51.191Z,67.60
2019-03-15T18:04:21.095Z,67.70
2019-03-15T18:06:50.852Z,68.10
2019-03-15T18:09:20.590Z,68.90
2019-03-15T18:11:50.330Z,69.00
2019-03-15T18:14:20.058Z,69.70
2019-03-15T18:16:49.790Z,70.30
2019-03-15T18:19:19.554Z,70.70
2019-03-15T18:21:49.459Z,70.80
2019-03-15T18:24:19.350Z,70.60
2019-03-15T18:26:49.075Z,70.30
2019-03-15T18:29:26.352Z,70.70
2019-03-15T18:31:50.334Z,70.60
2019-03-15T18:34:20.123Z,70.60
2019-03-15T18:36:49.885Z,70.90
2019-03-15T18:39:19.622Z,71.10
2019-03-15T18:41:50.656Z,71.00
2019-03-15T18:44:20.506Z,71.10
2019-03-15T18:46:50.304Z,71.00
2019-03-15T18:49:20.072Z,71.50
2019-03-15T18:51:55.367Z,72.50
2019-03-15T18:54:25.095Z,73.20
2019-03-15T18:56:54.874Z,73.50
2019-03-15T18:59:24.600Z,74.00
2019-03-15T19:01:54.340Z,74.00
2019-03-15T19:04:25.128Z,74.30
2019-03-15T19:06:54.863Z,74.40
2019-03-15T19:09:24.635Z,74.90
2019-03-15T19:11:54.363Z,74.50
2019-03-15T19:14:24.149Z,75.00
2019-03-15T19:16:53.875Z,75.00
2019-03-15T19:19:23.622Z,75.10
2019-03-15T19:21:53.411Z,75.00
2019-03-15T19:24:23.507Z,75.00
2019-03-15T19:26:53.279Z,75.10
2019-03-15T19:29:23.011Z,75.00
2019-03-15T19:31:52.748Z,75.10
2019-03-15T19:34:22.486Z,75.20
2019-03-15T19:36:53.223Z,75.10
2019-03-15T19:39:23.003Z,75.00
2019-03-15T19:41:52.752Z,75.40
2019-03-15T19:44:22.492Z,75.60
2019-03-15T19:46:52.247Z,75.90
2019-03-15T19:49:21.974Z,76.10
2019-03-15T19:51:51.819Z,76.60
2019-03-15T19:54:21.581Z,77.00
2019-03-15T19:56:51.461Z,77.10
2019-03-15T19:59:21.199Z,77.70
2019-03-15T20:01:50.969Z,77.80
2019-03-15T20:04:20.748Z,77.80
2019-03-15T20:06:50.484Z,77.80
2019-03-15T20:09:20.239Z,78.40
2019-03-15T20:11:52.103Z,78.50
2019-03-15T20:14:20.990Z,79.50
2019-03-15T20:16:50.896Z,81.10
2019-03-15T20:19:20.648Z,82.10
2019-03-15T20:21:51.376Z,83.00
2019-03-15T20:24:22.212Z,84.40
2019-03-15T20:26:51.948Z,84.80
2019-03-15T20:29:21.694Z,85.90
2019-03-15T20:31:54.091Z,86.80
2019-03-15T20:34:23.878Z,87.10
2019-03-15T20:36:53.603Z,87.50
2019-03-15T20:39:24.199Z,87.90
2019-03-15T20:41:53.941Z,88.40
2019-03-15T20:44:28.759Z,90.10
2019-03-15T20:46:55.055Z,90.40
2019-03-15T20:49:24.785Z,91.00
2019-03-15T20:51:55.659Z,91.50
2019-03-15T20:54:25.397Z,92.60
2019-03-15T20:56:55.162Z,92.70
2019-03-15T20:59:24.896Z,93.30
2019-03-15T21:01:54.630Z,93.60
2019-03-15T21:04:24.367Z,94.10
2019-03-15T21:06:54.114Z,94.60
2019-03-15T21:09:23.883Z,94.80
2019-03-15T21:11:53.607Z,95.20
2019-03-15T21:14:23.343Z,95.30
2019-03-15T21:16:53.078Z,95.50
2019-03-15T21:19:22.808Z,95.60
2019-03-15T21:21:52.591Z,95.60
2019-03-15T21:24:22.316Z,96.00
2019-03-15T21:26:52.087Z,96.00
2019-03-15T21:29:21.811Z,96.10
2019-03-15T21:31:51.831Z,96.40
2019-03-15T21:34:21.555Z,96.40
2019-03-15T21:36:51.279Z,96.60
2019-03-15T21:39:21.060Z,96.70
2019-03-15T21:41:50.812Z,96.80
2019-03-15T21:44:20.572Z,96.70
2019-03-15T21:46:50.307Z,96.90
2019-03-15T21:49:20.028Z,96.90
2019-03-15T21:51:49.804Z,97.00
2019-03-15T21:54:19.540Z,97.20
2019-03-15T21:56:49.264Z,97.30
2019-03-15T21:59:19.002Z,97.20
2019-03-15T22:01:48.735Z,97.00
2019-03-15T22:04:18.467Z,97.00
2019-03-15T22:06:48.210Z,96.90
2019-03-15T22:09:17.987Z,96.80
2019-03-15T22:11:47.716Z,97.10
2019-03-15T22:14:17.450Z,96.90
2019-03-15T22:16:47.192Z,96.80
2019-03-15T22:19:16.924Z,96.90
2019-03-15T22:21:47.794Z,97.10
2019-03-15T22:24:17.528Z,97.10
2019-03-15T22:26:47.261Z,97.10
2019-03-15T22:29:17.010Z,97.30
2019-03-15T22:31:46.736Z,97.30
2019-03-15T22:34:16.528Z,97.30
2019-03-15T22:36:46.253Z,97.40
2019-03-15T22:39:16.027Z,97.40
2019-03-15T22:41:46.612Z,97.30
2019-03-15T22:44:16.507Z,97.40
2019-03-15T22:46:46.237Z,97.50
2019-03-15T22:49:16.010Z,97.50
2019-03-15T22:51:51.083Z,97.40
2019-03-15T22:54:20.856Z,97.40
2019-03-15T22:56:50.585Z,97.20
2019-03-15T22:59:20.307Z,97.00
2019-03-15T23:01:50.329Z,96.20
2019-03-15T23:04:21.055Z,95.70
2019-03-15T23:06:50.839Z,95.10
2019-03-15T23:09:20.562Z,95.00
2019-03-15T23:11:50.299Z,94.30
2019-03-15T23:14:20.043Z,94.30
2019-03-15T23:16:49.770Z,94.40
2019-03-15T23:19:19.543Z,94.00
2019-03-15T23:21:49.276Z,93.20
2019-03-15T23:24:19.054Z,92.50
2019-03-15T23:26:48.780Z,92.30
2019-03-15T23:29:18.518Z,91.10
2019-03-15T23:31:48.264Z,90.90
2019-03-15T23:34:18.027Z,91.10
2019-03-15T23:36:47.760Z,90.80
2019-03-15T23:39:17.505Z,90.40
2019-03-15T23:41:48.979Z,90.50
2019-03-15T23:44:19.780Z,90.30
2019-03-15T23:46:49.498Z,90.40
2019-03-15T23:49:19.259Z,89.70
2019-03-15T23:51:48.987Z,89.10
2019-03-15T23:54:18.727Z,87.30
2019-03-15T23:56:48.755Z,87.10
2019-03-15T23:59:18.487Z,85.90
